Terminal Aerodrome Forecast
Issued by NWS

Home | Current Version | Previous Version | Text Only | Print | Product List | Glossary On
Versions: 1 2 3 4 5 6 7 8 9 10 11 12 13 14 15 16 17 18
000
FTUS42 KMLB 261500 AAB
TAFFPR
TAF AMD
KFPR 261521Z 2615/2712 26009KT P6SM SCT080 OVC100
     FM261600 27018G27KT P6SM SCT030 BKN050 BKN120
     FM270000 29013G20KT P6SM SKC=

USA.gov is the U.S. government's official web portal to all federal, state and local government web resources and services.